Airfield :







YOU CAN JOIN US ON...

 
LOGIN :

Register | Disclaimer

   EN    FR    IT 

 









Legend :    VFR   Marginal VFR   IFR   Intensive IFR   Very Intensive IFR
Visi :
Ceiling :
>= 8 km
>= 3000ft
5 to 8 km
1000 to 3000 ft
1500m to 5 km
500 to 1000 ft
800 to 1500m
200 to 500 ft
< 800m
< 200 ft
Symbols :   Thunderstorms  Fog  Heavy snow  Heavy precipitations  Wind > 20 kt







- Airport Elevation : 787 ft
- IATA code : RUT


KRUT - Rutland - Southern Vermont Regional

CURRENT METAR :
  • 191756Z AUTO VRB03KT 10SM CLR 19/04 A3031 RMK AO2 SLP261 T01890039 10189 20050 58018 $

EXPIRED METARs :
  • 191656Z AUTO 00000KT 7SM CLR 18/06 A3033 RMK AO2 SLP268 T01780056 $
  • 191556Z AUTO VRB03KT 10SM CLR 17/07 A3035 RMK AO2 SLP274 T01670067 $

TAF KRUT
Valid from the 19 at 18:00 until the 20 at 18:00 UTC


191720Z 1918/2018 VRB04KT P6SM SKC
FM200000 13008KT P6SM SKC
FM201200 VRB03KT P6SM FEW250
No reported NOTAMs for that airfield.



MET'MAP, your aeronautical weather chart ! - Copyright ORBIFLY December 2007 - Disclaimer

ORBIFLY MET'MAP TEAM :

Programming & Development : Alexandra Zaïnal
Concept & Development : Baudouin d'Aumeries
Co-Development & Prog : Marc-Olivier Méhu
Technical & hardware support : Manuel Goepfert

Contact : metmap@orbifly.com




SOURCES & CREDITS :

   NOAA